Cape Elizabeth, ME (04107)

8:40 PM EST on January 24, 2017 (GMT -0500)
| | Change Station
Active Advisory: Gale Warning

Elev -9999 ft 0.00 °N, 0.00 °E | Updated 5 minutes ago

Rain
Rain
°F
Feels Like °F
N
Wind Variable Wind from North
Gusts mph

Today
High -- | Low -- °F
--% Chance of Precip.
Yesterday
High -- | Low -- °F
Precip. -- in
Pressure 29.33 in
Visibility 9.0 miles
Clouds Mostly Cloudy 1000 ft
Overcast 1600 ft
Dew Point Not available.
Humidity Not available.
Rainfall --
Snow Depth Not available.
7:04 AM 4:41 PM
Waning Crescent, 9% visible
METAR KPWM 250051Z 36013KT 9SM -RA BKN010 OVC016 01/M01 A2933 RMK AO2 PK WND 35027/2359 SLP932 P0002 T00061006
Pressure 29.33 in
Visibility 9.0 miles
Clouds Mostly Cloudy 1000 ft
Overcast 1600 ft
Dew Point Not available.
Humidity Not available.
Rainfall --
Snow Depth Not available.
7:04 AM 4:41 PM
Waning Crescent, 9% visible
METAR KPWM 250051Z 36013KT 9SM -RA BKN010 OVC016 01/M01 A2933 RMK AO2 PK WND 35027/2359 SLP932 P0002 T00061006

Get Your Daily Forecast Email!

Thanks for signing up!

Be on the lookout for a verification email in your inbox.

You'll start receiving the daily forecast at 8 AM.

×

10-Day Weather Forecast

Almanac

Astronomy

Jan. 24, 2017 Rise Set
Actual Time
Civil Twilight
Nautical Twilight
Astronomical Twilight
Moon
Length of Visible Light
Length of Day
Tomorrow will be .
, % of the Moon is Illuminated

Today's Extremes

State Highs State Lows

Community

WunderPhotos

Upload Photos

1,962,540 photos uploaded!

WunderBlog® & News

Nearby

Air Quality

  Air Quality AQ Index Pollutant
Not available.

Snow Depth

Station Depth Elevation

Earthquake Activity

City Distance Mag. Time & Date
Minimum magnitude displayed is 2.5.

Coastal Water Temperatures

Place Temperature

Stations

Nearby Weather Stations

Station Location Temp. Windchill Dew Point Humidity Wind Precip. Elev Updated Type
                   

Watches & Warnings

Gale Warning
Issued: 2:47 PM EST Jan. 24, 2017 – National Weather Service

... Gale Warning remains in effect until 10 PM EST this evening...

* winds... northeast 20 to 30 kt with gusts up to 40 kt.

* Seas... 15 to 20 feet.

Precautionary/preparedness actions...

A Gale Warning means winds of 34 to 47 knots are imminent or
occuring. Operating a vessel in gale conditions requires
experience and properly equipped vessels. It is highly
recommended that mariners without the proper experience seek safe
Harbor prior to the onset of gale conditions.